Time;durP1;ratioP1;P1;durP2;ratioP2;P2;SDS_P1;SDS_P2;PMS_P1;PMS_P2;Temp;Humidity;BMP_temperature;BMP_pressure;BME280_temperature;BME280_humidity;BME280_pressure;Samples;Min_cycle;Max_cycle;Signal;HPM_P1;HPM_P2
2022/08/27 00:00:48;;;;;;;6.43;3.95;;;18.10;99.90;;;-144.05;77.63;125687.94;4997137;28;20077;-86
2022/08/27 00:03:14;;;;;;;7.55;3.80;;;18.10;99.90;;;-144.05;77.76;125687.94;5014268;28;20088;-87
2022/08/27 00:05:42;;;;;;;6.15;3.42;;;18.10;99.90;;;-144.05;77.73;125687.94;4996236;28;20128;-86
2022/08/27 00:08:11;;;;;;;7.20;4.15;;;18.10;99.90;;;-144.05;77.90;125687.94;4996642;28;20026;-87
2022/08/27 00:10:39;;;;;;;5.13;3.70;;;18.10;99.90;;;-144.05;77.88;125687.94;4997129;28;20029;-85
2022/08/27 00:13:05;;;;;;;5.63;4.35;;;18.10;99.90;;;-144.05;78.38;125687.94;4997609;28;20393;-83
2022/08/27 00:15:32;;;;;;;7.50;4.55;;;18.10;99.90;;;-144.05;78.35;125687.94;4996379;28;20030;-84
2022/08/27 00:17:58;;;;;;;9.02;5.30;;;18.10;99.90;;;-144.05;78.43;125687.94;4996961;28;20030;-86
2022/08/27 00:20:27;;;;;;;6.03;4.43;;;18.00;99.90;;;-144.05;79.02;125687.94;4996788;28;20118;-87
2022/08/27 00:22:53;;;;;;;7.07;5.05;;;18.00;99.90;;;-144.05;79.03;125687.94;4996759;28;20042;-85
2022/08/27 00:25:21;;;;;;;7.43;4.50;;;18.00;99.90;;;-144.05;79.30;125687.94;4996879;28;20065;-83
2022/08/27 00:27:47;;;;;;;7.47;4.47;;;18.00;99.90;;;-144.05;79.33;125687.94;4996546;28;20061;-87
2022/08/27 00:30:18;;;;;;;7.00;4.32;;;17.90;99.90;;;-144.05;79.37;125687.94;4996759;28;20113;-86
2022/08/27 00:32:44;;;;;;;8.73;4.18;;;17.90;99.90;;;-144.05;79.21;125687.94;4996299;28;20388;-86
2022/08/27 00:35:14;;;;;;;7.43;4.38;;;17.80;99.90;;;-144.05;78.80;125687.94;4996568;28;20030;-87
2022/08/27 00:37:42;;;;;;;10.23;4.40;;;17.80;99.90;;;-144.05;78.85;125687.94;4996391;28;20032;-81
2022/08/27 00:40:17;;;;;;;10.45;4.00;;;17.80;99.90;;;-144.05;78.66;125687.94;4996465;28;20022;-87
2022/08/27 00:42:44;;;;;;;8.50;3.58;;;17.70;99.90;;;-144.05;78.38;125687.94;4996108;28;20034;-85
2022/08/27 00:45:15;;;;;;;8.82;4.03;;;17.70;99.90;;;-144.05;78.31;125687.94;4996270;28;20397;-84
2022/08/27 00:47:55;;;;;;;7.78;3.97;;;17.70;99.90;;;-144.05;78.43;125687.94;4996538;28;20034;-87
2022/08/27 00:50:42;;;;;;;8.63;4.57;;;17.70;99.90;;;-144.05;78.30;125687.94;4995655;28;20030;-87
2022/08/27 00:53:21;;;;;;;8.45;4.50;;;17.60;99.90;;;-144.05;78.31;125687.94;5001594;28;20037;-78
2022/08/27 00:56:03;;;;;;;10.05;4.53;;;17.60;99.90;;;-144.05;78.01;125687.94;5019733;28;20053;-81
2022/08/27 00:58:36;;;;;;;7.13;3.17;;;17.70;99.90;;;-144.05;78.00;125687.94;4996492;28;20104;-88
2022/08/27 01:01:12;;;;;;;9.27;3.60;;;17.70;99.90;;;-144.05;78.01;125687.94;5013582;28;20117;-86
2022/08/27 01:03:45;;;;;;;;;;;17.70;99.90;;;-144.05;77.86;125687.94;4996967;28;20145;-86
2022/08/27 01:06:17;;;;;;;5.78;3.35;;;17.70;99.90;;;-144.05;78.15;125687.94;4995748;28;20254;-86
2022/08/27 01:08:56;;;;;;;10.90;4.15;;;17.70;99.90;;;-144.05;78.38;125687.94;4996286;28;20034;-84
2022/08/27 01:11:24;;;;;;;7.18;4.15;;;17.70;99.90;;;-144.05;78.95;125687.94;4995925;28;20033;-86
2022/08/27 01:13:52;;;;;;;10.82;5.03;;;17.70;99.90;;;-144.05;79.32;125687.94;4996085;28;20045;-86
2022/08/27 01:16:28;;;;;;;7.60;5.40;;;17.70;99.90;;;-144.05;79.61;125687.94;5013139;28;20118;-86
2022/08/27 01:18:59;;;;;;;10.52;5.30;;;17.70;99.90;;;-144.05;79.94;125687.94;4995683;28;20478;-87
2022/08/27 01:21:54;;;;;;;10.13;4.97;;;17.70;99.90;;;-144.05;80.32;125687.94;5014721;28;20053;-85
2022/08/27 01:24:47;;;;;;;11.38;5.20;;;17.70;99.90;;;-144.05;80.46;125687.94;4997635;28;20030;-86
2022/08/27 01:27:20;;;;;;;9.57;5.07;;;17.60;99.90;;;-144.05;80.77;125687.94;4996074;28;20037;-83
2022/08/27 01:29:47;;;;;;;9.00;4.95;;;17.50;99.90;;;-144.05;81.04;125687.94;4996125;28;20030;-85
2022/08/27 01:32:27;;;;;;;10.27;5.15;;;17.50;99.90;;;-144.05;81.77;125687.94;4995933;28;20030;-84
2022/08/27 01:34:55;;;;;;;10.85;5.25;;;17.50;99.90;;;-144.05;82.05;125687.94;5012129;28;20356;-88
2022/08/27 01:37:24;;;;;;;12.27;6.15;;;17.40;99.90;;;-144.05;82.26;125687.94;4996317;28;20073;-87
2022/08/27 01:39:52;;;;;;;11.93;5.15;;;17.40;99.90;;;-144.05;82.61;125687.94;4996330;28;20068;-85
2022/08/27 01:42:55;;;;;;;8.18;4.60;;;17.40;99.90;;;-144.05;83.01;125687.94;5014060;28;20398;-84
2022/08/27 01:45:32;;;;;;;7.13;4.55;;;17.40;99.90;;;-144.05;83.16;125687.94;5000482;28;20065;-86
2022/08/27 01:48:00;;;;;;;9.35;4.93;;;17.40;99.90;;;-144.05;83.47;125687.94;5015809;28;20026;-81
2022/08/27 01:50:38;;;;;;;9.13;4.88;;;17.30;99.90;;;-144.05;83.83;125687.94;4999736;28;20470;-85
2022/08/27 01:53:26;;;;;;;7.95;4.25;;;17.30;99.90;;;-144.05;84.04;125687.94;4999575;28;20044;-83
2022/08/27 01:55:54;;;;;;;8.25;5.28;;;17.30;99.90;;;-144.05;84.15;125687.94;5015921;28;20034;-83
2022/08/27 01:58:27;;;;;;;6.72;5.05;;;17.20;99.90;;;-144.05;84.29;125687.94;5015640;28;20475;-85
2022/08/27 02:01:04;;;;;;;8.07;4.53;;;17.20;99.90;;;-144.05;84.72;125687.94;5017488;28;20135;-87
2022/08/27 02:03:31;;;;;;;9.32;5.05;;;17.20;99.90;;;-144.05;84.34;125687.94;4999636;28;20383;-89
2022/08/27 02:05:59;;;;;;;11.77;6.32;;;17.20;99.90;;;-144.05;84.57;125687.94;5017938;28;20113;-86
2022/08/27 02:08:25;;;;;;;7.32;4.80;;;17.10;99.90;;;-144.05;84.91;125687.94;5015865;28;20033;-85
2022/08/27 02:10:51;;;;;;;11.38;5.75;;;17.10;99.90;;;-144.05;85.12;125687.94;5016940;28;20030;-88
2022/08/27 02:13:17;;;;;;;9.93;5.85;;;17.20;99.90;;;-144.05;85.31;125687.94;4999505;28;20506;-88
2022/08/27 02:15:49;;;;;;;14.68;5.20;;;17.20;99.90;;;-144.05;85.37;125687.94;4999093;28;20054;-87
2022/08/27 02:18:25;;;;;;;10.65;5.40;;;17.20;99.90;;;-144.05;85.54;125687.94;4999259;28;20147;-87
2022/08/27 02:25:08;;;;;;;;;;;;;;;;;;;;;
2022/08/27 02:34:55;;;;;;;;;;;;;;;;;;;;;
2022/08/27 02:37:22;;;;;;;11.50;6.63;;;17.00;99.90;;;-144.05;85.87;125687.94;5008436;28;20378;-87
2022/08/27 02:40:21;;;;;;;13.98;6.40;;;17.00;99.90;;;-144.05;85.88;125687.94;5014721;28;20123;-86
2022/08/27 02:47:45;;;;;;;;;;;;;;;;;;;;;
2022/08/27 07:01:34;;;;;;;3.17;2.47;;;17.00;99.90;;;-144.05;87.77;125687.94;5042033;28;20061;-87
2022/08/27 07:04:08;;;;;;;6.28;2.60;;;17.00;99.90;;;-144.05;87.28;125687.94;5042053;28;20071;-88
2022/08/27 07:06:37;;;;;;;6.53;3.00;;;17.00;99.90;;;-144.05;87.38;125687.94;5056725;28;20029;-89
2022/08/27 07:09:08;;;;;;;7.45;2.80;;;17.10;99.90;;;-144.05;87.06;125687.94;5057906;28;20029;-86
2022/08/27 07:11:35;;;;;;;5.30;2.80;;;17.20;99.90;;;-144.05;86.69;125687.94;5060389;28;20124;-88
2022/08/27 07:14:04;;;;;;;7.72;2.72;;;17.30;99.90;;;-144.05;85.77;125687.94;5078956;28;20041;-86
2022/08/27 07:16:36;;;;;;;8.82;2.70;;;17.20;99.90;;;-144.05;85.96;125687.94;5069002;28;20068;-91
2022/08/27 07:19:15;;;;;;;5.47;2.15;;;17.30;99.90;;;-144.05;85.66;125687.94;5069678;28;20036;-92
2022/08/27 07:21:41;;;;;;;9.30;2.95;;;17.40;99.90;;;-144.05;85.52;125687.94;5048196;28;20447;-91
2022/08/27 07:24:08;;;;;;;5.30;2.85;;;17.50;99.90;;;-144.05;85.06;125687.94;5062771;28;20064;-90
2022/08/27 07:26:41;;;;;;;8.75;3.08;;;17.60;99.90;;;-144.05;84.38;125687.94;5061534;28;20455;-90
2022/08/27 07:29:13;;;;;;;8.30;2.92;;;17.70;99.90;;;-144.05;83.47;125687.94;5062441;28;20029;-91
2022/08/27 07:31:40;;;;;;;6.82;2.45;;;17.80;99.90;;;-144.05;82.61;125687.94;5064931;28;20039;-90
2022/08/27 07:34:07;;;;;;;5.72;2.45;;;17.80;99.90;;;-144.05;81.59;125687.94;5065309;28;20101;-92
2022/08/27 07:36:34;;;;;;;7.25;2.97;;;18.00;99.90;;;-144.05;80.34;125687.94;5068394;28;20040;-91
2022/08/27 07:39:01;;;;;;;5.82;2.25;;;18.00;99.90;;;-144.05;80.73;125687.94;5062670;28;20039;-90
2022/08/27 07:44:23;;;;;;;5.47;2.33;;;18.10;99.90;;;-144.05;80.91;125687.94;5058831;28;20021;-91
2022/08/27 07:44:24;;;;;;;7.13;2.83;;;18.10;99.90;;;-144.05;80.49;125687.94;5057894;28;20520;-89
2022/08/27 07:46:51;;;;;;;4.15;2.08;;;18.20;99.90;;;-144.05;80.19;125687.94;5059078;28;20037;-91
2022/08/27 07:49:17;;;;;;;6.13;2.30;;;18.20;99.90;;;-144.05;79.29;125687.94;5057105;28;20031;-88
2022/08/27 07:51:45;;;;;;;5.82;2.30;;;18.30;99.90;;;-144.05;78.78;125687.94;5058572;28;20346;-88
2022/08/27 07:54:11;;;;;;;5.00;2.30;;;18.30;99.90;;;-144.05;78.05;125687.94;5060182;28;20096;-89
2022/08/27 07:56:37;;;;;;;6.28;2.03;;;18.30;99.90;;;-144.05;78.10;125687.94;5058164;28;20396;-91
2022/08/27 07:59:03;;;;;;;4.68;2.15;;;18.40;99.90;;;-144.05;77.56;125687.94;5057630;28;20047;-89
2022/08/27 08:01:29;;;;;;;7.05;2.38;;;18.40;99.90;;;-144.05;76.44;125687.94;5058868;28;20154;-92
2022/08/27 08:03:56;;;;;;;6.90;2.05;;;18.30;99.90;;;-144.05;76.08;125687.94;5058881;28;20068;-89
2022/08/27 08:06:22;;;;;;;3.83;1.73;;;18.30;99.90;;;-144.05;76.42;125687.94;5059291;28;20025;-87
2022/08/27 08:08:49;;;;;;;5.95;1.98;;;18.20;99.90;;;-144.05;77.04;125687.94;5059177;28;20047;-90
2022/08/27 08:11:19;;;;;;;8.32;2.28;;;18.20;99.90;;;-144.05;76.19;125687.94;5059834;28;20021;-89
2022/08/27 08:13:47;;;;;;;6.47;2.03;;;18.10;99.90;;;-144.05;76.00;125687.94;5061586;28;20044;-88
2022/08/27 08:16:14;;;;;;;4.03;2.00;;;18.10;99.90;;;-144.05;76.92;125687.94;5058356;28;20028;-89
2022/08/27 08:18:40;;;;;;;5.85;2.17;;;18.10;99.90;;;-144.05;76.63;125687.94;5059916;28;20029;-89
2022/08/27 08:21:13;;;;;;;9.63;2.45;;;18.10;99.90;;;-144.05;75.57;125687.94;5067035;28;20033;-88
2022/08/27 08:23:43;;;;;;;7.85;2.70;;;18.10;99.90;;;-144.05;77.09;125687.94;5066288;28;20037;-89
2022/08/27 08:26:11;;;;;;;6.43;2.00;;;18.10;99.90;;;-144.05;76.24;125687.94;5051700;28;20033;-89
2022/08/27 08:28:40;;;;;;;4.05;1.92;;;18.10;99.90;;;-144.05;76.88;125687.94;5075307;28;20044;-87
2022/08/27 08:31:06;;;;;;;5.05;1.88;;;18.10;99.90;;;-144.05;76.29;125687.94;5032868;28;20033;-88
2022/08/27 08:33:38;;;;;;;6.20;2.03;;;18.10;99.90;;;-144.05;76.71;125687.94;5069963;28;20064;-88
2022/08/27 08:36:16;;;;;;;5.38;2.08;;;18.20;99.90;;;-144.05;74.19;125687.94;5072660;28;20037;-88
2022/08/27 08:38:45;;;;;;;3.90;2.15;;;18.20;99.90;;;-144.05;75.94;125687.94;5071750;28;20059;-89
2022/08/27 08:41:42;;;;;;;10.10;2.53;;;18.20;99.90;;;-144.05;73.94;125687.94;5076517;28;20032;-90
2022/08/27 08:44:34;;;;;;;8.35;2.65;;;18.20;99.90;;;-144.05;74.95;125687.94;5076755;28;20017;-89
2022/08/27 08:47:43;;;;;;;5.93;2.45;;;18.20;99.90;;;-144.05;74.24;125687.94;5069493;28;20041;-91
2022/08/27 08:50:29;;;;;;;6.32;2.28;;;18.20;99.90;;;-144.05;75.58;125687.94;5062280;28;20036;-92
2022/08/27 08:53:08;;;;;;;8.63;2.40;;;18.40;99.90;;;-144.05;74.72;125687.94;5063117;28;20025;-91
2022/08/27 08:55:49;;;;;;;8.25;2.95;;;18.60;99.90;;;-144.05;70.68;125687.94;5062888;28;20101;-89
2022/08/27 08:58:31;;;;;;;9.15;2.97;;;18.80;99.90;;;-144.05;69.16;125687.94;5062991;28;20056;-91
2022/08/27 09:01:05;;;;;;;5.13;2.60;;;18.90;99.90;;;-144.05;70.72;125687.94;5065727;28;20017;-91
2022/08/27 09:03:40;;;;;;;6.10;2.72;;;19.00;99.90;;;-144.05;70.77;125687.94;5069955;28;20063;-90
2022/08/27 10:19:13;;;;;;;5.75;1.42;;;19.80;99.90;;;-144.05;61.95;125687.94;5056692;28;20075;-86
2022/08/27 10:27:48;;;;;;;6.32;1.65;;;20.40;99.90;;;-144.05;59.37;125687.94;5055595;28;20073;-87
2022/08/27 10:31:12;;;;;;;4.93;1.60;;;20.70;99.90;;;-144.05;58.34;125687.94;5026520;28;20026;-85
2022/08/27 10:34:23;;;;;;;4.35;1.63;;;21.00;99.90;;;-144.05;58.40;125687.94;5026621;28;20109;-90
2022/08/27 10:37:45;;;;;;;3.42;1.33;;;21.30;99.90;;;-144.05;56.44;125687.94;5026389;28;20042;-87
2022/08/27 10:41:00;;;;;;;4.28;1.58;;;21.30;99.90;;;-144.05;55.55;125687.94;4932989;29;20081;-88
2022/08/27 10:44:15;;;;;;;6.68;1.52;;;21.50;99.90;;;-144.05;55.92;125687.94;5010299;28;20038;-91
2022/08/27 10:47:14;;;;;;;3.35;1.35;;;21.70;99.90;;;-144.05;54.92;125687.94;5022546;28;20137;-88
2022/08/27 10:50:02;;;;;;;4.00;1.42;;;21.80;99.90;;;-144.05;52.28;125687.94;5025286;28;20044;-87
2022/08/27 10:52:53;;;;;;;6.07;1.33;;;21.80;99.90;;;-144.05;55.94;125687.94;5028352;28;20033;-86
2022/08/27 10:55:37;;;;;;;5.05;1.63;;;21.70;99.90;;;-144.05;54.01;125687.94;5033947;28;20056;-86
2022/08/27 10:59:20;;;;;;;5.82;1.55;;;21.80;99.90;;;-144.05;52.84;125687.94;5023742;28;20053;-86
2022/08/27 11:02:41;;;;;;;3.95;1.38;;;21.80;99.90;;;-144.05;53.11;125687.94;5017808;28;20409;-86
2022/08/27 11:05:25;;;;;;;5.38;1.30;;;22.00;99.90;;;-144.05;53.64;125687.94;5021504;28;20064;-90
2022/08/27 11:08:22;;;;;;;5.15;1.40;;;22.20;99.90;;;-144.05;53.44;125687.94;5020261;28;20034;-86
2022/08/27 11:11:04;;;;;;;5.22;1.35;;;22.30;99.90;;;-144.05;52.25;125687.94;5021910;28;20037;-89
2022/08/27 11:13:45;;;;;;;5.07;1.45;;;22.40;99.90;;;-144.05;53.23;125687.94;5022915;28;20113;-90
2022/08/27 11:16:26;;;;;;;4.57;1.15;;;22.40;99.90;;;-144.05;51.16;125687.94;5023325;28;20350;-90
2022/08/27 11:19:36;;;;;;;4.10;1.23;;;22.40;99.90;;;-144.05;50.23;125687.94;5021811;28;20022;-91
2022/08/27 11:22:22;;;;;;;2.88;1.00;;;22.40;99.90;;;-144.05;52.82;125687.94;5022662;28;20034;-89
2022/08/27 11:25:21;;;;;;;9.18;1.17;;;22.40;99.90;;;-144.05;50.52;125687.94;5021183;28;20034;-88
2022/08/27 11:28:01;;;;;;;4.30;1.25;;;22.40;99.90;;;-144.05;49.98;125687.94;5021571;28;20485;-87
2022/08/27 11:30:34;;;;;;;3.67;1.50;;;22.30;99.90;;;-144.05;51.20;125687.94;5020929;28;20033;-87
2022/08/27 11:33:16;;;;;;;4.65;1.50;;;22.40;99.90;;;-144.05;49.06;125687.94;5022212;28;20387;-89
2022/08/27 11:36:19;;;;;;;5.70;1.90;;;22.30;99.90;;;-144.05;49.88;125687.94;5020244;28;20428;-92
2022/08/27 11:39:19;;;;;;;3.85;0.95;;;22.30;99.90;;;-144.05;47.70;125687.94;5019154;28;20060;-91
2022/08/27 11:42:33;;;;;;;4.32;1.13;;;22.30;99.90;;;-144.05;48.05;125687.94;4996947;28;20042;-91
2022/08/27 11:45:21;;;;;;;5.28;0.95;;;22.50;99.90;;;-144.05;46.90;125687.94;5020812;28;20057;-89
2022/08/27 11:48:20;;;;;;;5.25;1.00;;;22.60;99.90;;;-144.05;46.90;125687.94;5019984;28;20025;-91
2022/08/27 11:51:13;;;;;;;4.30;1.40;;;22.70;99.90;;;-144.05;48.11;125687.94;5037914;28;20430;-90
2022/08/27 11:53:58;;;;;;;6.00;1.48;;;22.60;99.90;;;-144.05;48.88;125687.94;5023111;28;20029;-90
2022/08/27 11:56:31;;;;;;;4.53;1.05;;;22.40;99.90;;;-144.05;49.18;125687.94;5029097;28;20030;-91
2022/08/27 11:59:27;;;;;;;2.45;1.27;;;22.10;99.90;;;-144.05;49.67;125687.94;5035734;28;20089;-90
2022/08/27 12:02:26;;;;;;;3.33;1.27;;;22.00;99.90;;;-144.05;49.93;125687.94;5037094;28;20114;-91
2022/08/27 16:45:36;;;;;;;4.80;1.77;;;21.60;99.90;;;-144.05;47.79;125687.94;5045982;28;20040;-87
2022/08/27 16:50:54;;;;;;;3.83;1.90;;;21.40;99.90;;;-144.05;47.22;125687.94;5066493;28;20050;-88
2022/08/27 16:53:21;;;;;;;5.68;1.58;;;21.30;99.90;;;-144.05;47.53;125687.94;5063567;28;20532;-90
2022/08/27 16:55:48;;;;;;;6.72;1.63;;;21.30;99.90;;;-144.05;47.63;125687.94;5061061;28;20021;-89
2022/08/27 16:58:31;;;;;;;6.05;1.60;;;21.20;99.90;;;-144.05;47.60;125687.94;5064192;28;20025;-88
2022/08/27 17:01:12;;;;;;;4.35;1.52;;;21.10;99.90;;;-144.05;48.20;125687.94;5069999;28;20044;-89
2022/08/27 17:03:57;;;;;;;4.65;1.40;;;21.10;99.90;;;-144.05;48.42;125687.94;5076291;28;20021;-88
2022/08/27 17:06:26;;;;;;;4.73;1.70;;;21.10;99.90;;;-144.05;48.68;125687.94;5064847;28;20115;-92
2022/08/27 17:08:55;;;;;;;6.03;1.70;;;21.00;99.90;;;-144.05;48.22;125687.94;5061921;28;20033;-91
2022/08/27 17:11:29;;;;;;;5.38;2.00;;;21.00;99.90;;;-144.05;48.09;125687.94;5063412;28;20192;-89
2022/08/27 17:14:03;;;;;;;4.32;1.85;;;20.90;99.90;;;-144.05;48.50;125687.94;5066466;28;20012;-88
2022/08/27 17:16:40;;;;;;;3.42;1.40;;;20.80;99.90;;;-144.05;48.46;125687.94;5068256;28;20051;-91
2022/08/27 17:19:08;;;;;;;4.57;1.40;;;20.80;99.90;;;-144.05;48.53;125687.94;5066255;28;20036;-90
2022/08/27 17:21:36;;;;;;;7.28;2.08;;;20.80;99.90;;;-144.05;48.21;125687.94;5068338;28;20504;-91
2022/08/27 17:24:04;;;;;;;3.53;1.30;;;20.80;99.90;;;-144.05;48.29;125687.94;5068359;28;20039;-89
2022/08/27 17:26:33;;;;;;;5.90;1.70;;;20.80;99.90;;;-144.05;48.56;125687.94;5054833;28;20029;-90
2022/08/27 17:28:59;;;;;;;3.88;1.35;;;20.80;99.90;;;-144.05;48.52;125687.94;5054325;28;20029;-92
2022/08/27 17:31:35;;;;;;;3.28;1.55;;;20.80;99.90;;;-144.05;48.68;125687.94;5071817;28;20054;-89
2022/08/27 17:52:14;;;;;;;4.55;1.48;;;20.60;99.90;;;-144.05;48.77;125687.94;5025902;28;20050;-88
2022/08/27 17:54:52;;;;;;;5.93;1.42;;;20.50;99.90;;;-144.05;48.43;125687.94;5029641;28;20030;-90
2022/08/27 17:57:33;;;;;;;8.98;1.60;;;20.40;99.90;;;-144.05;48.54;125687.94;5029268;28;20034;-91
2022/08/27 18:00:03;;;;;;;5.53;1.30;;;20.40;99.90;;;-144.05;49.02;125687.94;4994409;28;20034;-90
2022/08/27 18:02:46;;;;;;;6.45;1.85;;;20.40;99.90;;;-144.05;49.06;125687.94;5028603;28;20026;-91
2022/08/27 18:05:17;;;;;;;3.92;1.40;;;20.40;99.90;;;-144.05;49.08;125687.94;5009710;28;20014;-91
2022/08/27 18:07:50;;;;;;;4.78;1.40;;;20.30;99.90;;;-144.05;49.21;125687.94;5013595;28;20034;-91
